createdAt,value
2022-10-28T00:01:07.427Z,99905.31
2022-10-28T00:03:38.252Z,99902.38
2022-10-28T00:06:10.531Z,99896.72
2022-10-28T00:08:37.192Z,99887.69
2022-10-28T00:11:15.396Z,99900.84
2022-10-28T00:13:42.970Z,99897.66
2022-10-28T00:16:12.240Z,99909.75
2022-10-28T00:18:39.288Z,99903.00
2022-10-28T00:21:12.612Z,99914.41
2022-10-28T00:23:39.574Z,99908.50
2022-10-28T00:26:17.850Z,99902.88
2022-10-28T00:28:50.348Z,99898.47
2022-10-28T00:31:19.781Z,99903.47
2022-10-28T00:33:46.966Z,99904.03
2022-10-28T00:36:27.326Z,99913.16
2022-10-28T00:38:55.031Z,99911.63
2022-10-28T00:41:36.836Z,99918.72
2022-10-28T00:44:37.833Z,99909.50
2022-10-28T00:47:05.734Z,99919.31
2022-10-28T00:49:34.635Z,99911.28
2022-10-28T00:52:06.060Z,99918.78
2022-10-28T00:54:33.566Z,99896.19
2022-10-28T00:57:02.983Z,99911.06
2022-10-28T00:59:34.249Z,99906.41
2022-10-28T01:02:01.332Z,99907.44
2022-10-28T01:04:28.048Z,99898.50
2022-10-28T01:06:56.599Z,99897.44
2022-10-28T01:09:23.008Z,99887.38
2022-10-28T01:12:08.077Z,99892.50
2022-10-28T01:14:44.181Z,99893.09
2022-10-28T01:17:38.555Z,99882.66
2022-10-28T01:20:23.709Z,99883.34
2022-10-28T01:23:01.155Z,99874.88
2022-10-28T01:26:00.051Z,99885.06
2022-10-28T01:28:45.671Z,99884.50
2022-10-28T01:31:19.710Z,99878.97
2022-10-28T01:33:57.917Z,99875.25
2022-10-28T01:36:36.960Z,99880.69
2022-10-28T01:39:22.226Z,99875.63
2022-10-28T01:41:57.858Z,99859.81
2022-10-28T01:44:30.607Z,99867.31
2022-10-28T01:47:04.404Z,99865.72
2022-10-28T01:49:41.686Z,99859.47
2022-10-28T01:52:12.844Z,99877.94
2022-10-28T01:54:42.832Z,99861.38
2022-10-28T01:57:12.333Z,99880.22
2022-10-28T01:59:41.121Z,99889.78
2022-10-28T02:02:07.564Z,99878.28
2022-10-28T02:04:33.974Z,99878.66
2022-10-28T02:07:00.962Z,99866.72
2022-10-28T02:09:47.361Z,99875.75
2022-10-28T02:12:19.869Z,99880.19
2022-10-28T02:14:55.642Z,99876.75
2022-10-28T02:18:00.001Z,99867.72
2022-10-28T02:20:40.182Z,99866.97
2022-10-28T02:23:15.403Z,99859.50
2022-10-28T02:25:49.800Z,99850.25
2022-10-28T02:28:22.032Z,99862.16
2022-10-28T02:30:55.598Z,99852.34
2022-10-28T02:33:26.951Z,99842.94
2022-10-28T02:35:59.121Z,99842.06
2022-10-28T02:38:32.285Z,99832.53
2022-10-28T02:41:03.624Z,99836.53
2022-10-28T02:43:33.608Z,99841.13
2022-10-28T02:46:03.297Z,99836.31
2022-10-28T02:48:49.415Z,99850.13
2022-10-28T02:51:21.605Z,99845.75
2022-10-28T02:54:09.232Z,99840.00
2022-10-28T02:56:42.891Z,99847.22
2022-10-28T02:59:13.098Z,99843.97
2022-10-28T03:01:40.156Z,99836.72
2022-10-28T03:04:06.867Z,99841.56
2022-10-28T03:06:33.236Z,99846.50
2022-10-28T03:08:59.898Z,99842.41
2022-10-28T03:11:26.223Z,99852.66
2022-10-28T03:13:52.564Z,99857.41
2022-10-28T03:16:19.219Z,99861.03
2022-10-28T03:18:45.759Z,99869.72
2022-10-28T03:21:12.083Z,99864.53
2022-10-28T03:23:38.465Z,99857.91
2022-10-28T03:26:04.879Z,99864.06
2022-10-28T03:28:31.201Z,99864.28
2022-10-28T03:30:57.601Z,99872.63
2022-10-28T03:33:23.920Z,99871.66
2022-10-28T03:35:50.232Z,99863.59
2022-10-28T03:38:16.648Z,99852.47
2022-10-28T03:40:42.974Z,99865.38
2022-10-28T03:43:09.282Z,99881.78
2022-10-28T03:45:35.655Z,99883.25
2022-10-28T03:48:02.014Z,99876.81
2022-10-28T03:50:28.958Z,99876.22
2022-10-28T03:52:55.421Z,99879.72
2022-10-28T03:55:21.748Z,99884.44
2022-10-28T03:57:48.181Z,99881.91
2022-10-28T04:00:15.327Z,99879.13
2022-10-28T04:02:41.636Z,99882.00
2022-10-28T04:05:09.087Z,99886.50
2022-10-28T04:07:35.573Z,99870.22
2022-10-28T04:10:01.966Z,99877.06
2022-10-28T04:12:28.366Z,99875.41
2022-10-28T04:14:54.673Z,99872.00
2022-10-28T04:17:21.361Z,99868.25
2022-10-28T04:19:47.742Z,99846.44
2022-10-28T04:22:14.304Z,99849.91
2022-10-28T04:24:40.663Z,99840.38
2022-10-28T04:27:06.967Z,99840.47
2022-10-28T04:29:33.445Z,99848.22
2022-10-28T04:32:00.020Z,99843.63
2022-10-28T04:34:26.598Z,99857.78
2022-10-28T04:36:52.924Z,99868.16
2022-10-28T04:39:19.644Z,99868.72
2022-10-28T04:41:46.395Z,99862.97
2022-10-28T04:44:13.075Z,99854.28
2022-10-28T04:46:39.479Z,99851.50
2022-10-28T04:49:05.938Z,99872.47
2022-10-28T04:51:32.375Z,99861.63
2022-10-28T04:53:58.954Z,99851.94
2022-10-28T04:56:25.304Z,99839.75
2022-10-28T04:58:51.839Z,99835.44
2022-10-28T05:01:18.262Z,99825.13
2022-10-28T05:03:44.702Z,99799.78
2022-10-28T05:06:11.133Z,99794.75
2022-10-28T05:08:37.486Z,99792.16
2022-10-28T05:11:04.352Z,99795.19
2022-10-28T05:13:30.737Z,99798.19
2022-10-28T05:15:57.160Z,99788.56
2022-10-28T05:18:23.522Z,99781.50
2022-10-28T05:20:50.101Z,99790.28
2022-10-28T05:23:16.580Z,99785.25
2022-10-28T05:25:42.937Z,99787.00
2022-10-28T05:28:09.311Z,99794.41
2022-10-28T05:30:35.824Z,99787.34
2022-10-28T05:33:02.618Z,99798.94
2022-10-28T05:35:30.306Z,99817.00
2022-10-28T05:37:57.576Z,99810.25
2022-10-28T05:40:24.245Z,99807.13
2022-10-28T05:42:50.822Z,99803.22
2022-10-28T05:45:17.661Z,99794.69
2022-10-28T05:47:48.710Z,99795.56
2022-10-28T05:50:18.178Z,99785.31
2022-10-28T05:52:54.109Z,99788.28
2022-10-28T05:55:22.206Z,99793.34
2022-10-28T05:57:50.092Z,99787.78
2022-10-28T06:00:19.098Z,99765.47
2022-10-28T06:02:45.968Z,99763.94
2022-10-28T06:05:12.937Z,99766.59
2022-10-28T06:07:41.062Z,99759.72
2022-10-28T06:10:09.209Z,99774.34
2022-10-28T06:15:06.732Z,99768.03
2022-10-28T06:17:33.273Z,99751.81
2022-10-28T06:19:59.759Z,99760.38
2022-10-28T06:22:26.422Z,99767.53
2022-10-28T06:24:52.874Z,99764.09
2022-10-28T06:27:19.361Z,99766.75
2022-10-28T06:29:45.735Z,99758.63
2022-10-28T06:32:12.351Z,99759.94
2022-10-28T06:34:38.755Z,99767.53
2022-10-28T06:37:05.364Z,99764.19
2022-10-28T06:39:32.024Z,99771.28
2022-10-28T06:41:58.533Z,99759.00
2022-10-28T06:44:24.969Z,99769.38
2022-10-28T06:46:52.891Z,99763.81
2022-10-28T06:49:19.429Z,99762.81
2022-10-28T06:51:45.862Z,99754.41
2022-10-28T06:54:12.214Z,99775.38
2022-10-28T06:56:38.743Z,99751.72
2022-10-28T06:59:05.109Z,99745.19
2022-10-28T07:01:31.601Z,99753.09
2022-10-28T07:03:58.105Z,99748.59
2022-10-28T07:06:24.602Z,99753.09
2022-10-28T07:08:51.569Z,99753.38
2022-10-28T07:11:18.135Z,99758.56
2022-10-28T07:13:46.656Z,99766.56
2022-10-28T07:16:15.322Z,99755.44
2022-10-28T07:18:41.736Z,99751.06
2022-10-28T07:21:08.184Z,99753.19
2022-10-28T07:23:34.714Z,99742.88
2022-10-28T07:26:01.361Z,99739.66
2022-10-28T07:28:28.251Z,99758.16
2022-10-28T07:30:54.780Z,99753.78
2022-10-28T07:33:21.211Z,99762.03
2022-10-28T07:35:47.600Z,99746.81
2022-10-28T07:38:14.456Z,99750.28
2022-10-28T07:40:40.922Z,99753.47
2022-10-28T07:43:07.299Z,99753.72
2022-10-28T07:45:34.894Z,99754.13
2022-10-28T07:48:01.854Z,99748.69
2022-10-28T07:50:28.304Z,99765.59
2022-10-28T07:52:55.307Z,99762.75
2022-10-28T07:55:21.879Z,99755.03
2022-10-28T07:57:48.758Z,99759.69
2022-10-28T08:00:15.620Z,99774.03
2022-10-28T08:02:42.165Z,99760.19
2022-10-28T08:05:08.824Z,99776.47
2022-10-28T08:07:38.448Z,99761.28
2022-10-28T08:10:06.590Z,99765.31
2022-10-28T08:12:33.079Z,99764.91
2022-10-28T08:14:59.498Z,99755.84
2022-10-28T08:17:25.840Z,99752.34
2022-10-28T08:19:52.209Z,99768.06
2022-10-28T08:22:20.724Z,99754.72
2022-10-28T08:24:47.074Z,99755.97
2022-10-28T08:27:13.632Z,99752.00
2022-10-28T08:29:40.002Z,99750.75
2022-10-28T08:32:09.511Z,99743.00
2022-10-28T08:34:39.262Z,99753.78
2022-10-28T08:37:08.932Z,99762.91
2022-10-28T08:39:35.334Z,99756.50
2022-10-28T08:42:13.827Z,99762.69
2022-10-28T08:44:53.485Z,99756.66
2022-10-28T08:47:47.653Z,99746.94
2022-10-28T08:50:16.487Z,99752.38
2022-10-28T08:52:58.920Z,99769.09
2022-10-28T08:55:38.620Z,99752.97
2022-10-28T08:58:11.595Z,99755.47
2022-10-28T09:00:40.077Z,99751.50
2022-10-28T09:03:12.441Z,99748.19
2022-10-28T09:05:41.279Z,99754.78
2022-10-28T09:08:19.227Z,99751.06
2022-10-28T09:10:54.486Z,99750.59
2022-10-28T09:13:45.969Z,99740.44
2022-10-28T09:16:25.153Z,99753.63
2022-10-28T09:18:56.809Z,99761.63
2022-10-28T09:21:37.667Z,99766.41
2022-10-28T09:24:15.804Z,99775.56
2022-10-28T09:26:57.422Z,99769.50
2022-10-28T09:29:45.592Z,99775.75
2022-10-28T09:32:33.767Z,99796.38
2022-10-28T09:35:06.491Z,99794.97
2022-10-28T09:37:38.195Z,99791.00
2022-10-28T09:40:15.558Z,99805.41
2022-10-28T09:42:52.716Z,99786.13
2022-10-28T09:45:26.542Z,99790.25
2022-10-28T09:48:01.488Z,99781.84
2022-10-28T09:50:31.862Z,99780.31
2022-10-28T09:53:23.034Z,99788.63
2022-10-28T09:55:51.143Z,99783.66
2022-10-28T09:58:18.791Z,99779.41
2022-10-28T10:00:45.405Z,99781.59
2022-10-28T10:03:11.863Z,99785.56
2022-10-28T10:05:42.357Z,99768.34
2022-10-28T10:08:14.374Z,99781.41
2022-10-28T10:10:59.240Z,99798.50
2022-10-28T10:13:29.563Z,99782.56
2022-10-28T10:16:00.803Z,99785.56
2022-10-28T10:18:31.009Z,99795.56
2022-10-28T10:20:58.018Z,99775.34
2022-10-28T10:23:33.257Z,99798.63
2022-10-28T10:26:09.489Z,99791.38
2022-10-28T10:28:43.338Z,99790.66
2022-10-28T10:31:20.532Z,99788.88
2022-10-28T10:33:50.448Z,99779.63
2022-10-28T10:36:18.911Z,99775.94
2022-10-28T10:38:53.570Z,99772.59
2022-10-28T10:41:42.745Z,99780.69
2022-10-28T10:44:21.546Z,99771.28
2022-10-28T10:47:04.937Z,99771.91
2022-10-28T10:49:34.674Z,99756.44
2022-10-28T10:52:17.708Z,99766.03
2022-10-28T10:54:58.761Z,99746.88
2022-10-28T10:57:26.021Z,99746.91
2022-10-28T10:59:54.370Z,99753.88
2022-10-28T11:02:26.407Z,99753.41
2022-10-28T11:04:57.414Z,99742.97
2022-10-28T11:07:24.394Z,99730.88
2022-10-28T11:09:51.620Z,99753.06
2022-10-28T11:12:30.145Z,99748.13
2022-10-28T11:14:59.088Z,99731.97
2022-10-28T11:17:28.744Z,99745.16
2022-10-28T11:19:58.457Z,99737.47
2022-10-28T11:22:53.753Z,99742.19
2022-10-28T11:25:43.442Z,99736.97
2022-10-28T11:28:25.058Z,99728.28
2022-10-28T11:31:03.371Z,99713.06
2022-10-28T11:33:33.262Z,99719.44
2022-10-28T11:36:07.148Z,99724.97
2022-10-28T11:38:45.857Z,99718.78
2022-10-28T11:41:21.303Z,99725.94
2022-10-28T11:43:57.559Z,99720.63
2022-10-28T11:47:00.924Z,99707.34
2022-10-28T11:49:33.207Z,99718.44
2022-10-28T11:52:22.819Z,99713.56
2022-10-28T11:55:21.108Z,99714.16
2022-10-28T11:58:10.371Z,99716.19
2022-10-28T12:00:55.613Z,99712.50
2022-10-28T12:03:41.077Z,99708.44
2022-10-28T12:06:11.230Z,99700.91
2022-10-28T12:08:45.272Z,99708.56
2022-10-28T12:11:16.733Z,99702.81
2022-10-28T12:13:45.997Z,99702.13
2022-10-28T12:16:30.886Z,99697.81
2022-10-28T12:19:03.688Z,99689.97
2022-10-28T12:21:37.582Z,99679.72
2022-10-28T12:24:12.023Z,99689.84
2022-10-28T12:26:43.528Z,99683.94
2022-10-28T12:29:18.820Z,99678.75
2022-10-28T12:31:53.962Z,99673.66
2022-10-28T12:34:28.665Z,99679.63
2022-10-28T12:37:17.822Z,99682.88
2022-10-28T12:39:51.550Z,99677.50
2022-10-28T12:42:28.942Z,99683.69
2022-10-28T12:44:59.002Z,99669.19
2022-10-28T12:47:43.305Z,99668.75
2022-10-28T12:50:31.729Z,99672.50
2022-10-28T12:53:14.282Z,99657.44
2022-10-28T12:55:52.400Z,99653.31
2022-10-28T12:58:33.841Z,99654.94
2022-10-28T13:01:08.731Z,99641.25
2022-10-28T13:03:35.907Z,99642.88
2022-10-28T13:06:27.146Z,99637.13
2022-10-28T13:09:18.245Z,99627.75
2022-10-28T13:12:02.679Z,99634.44
2022-10-28T13:14:50.664Z,99636.31
2022-10-28T13:17:42.133Z,99637.13
2022-10-28T13:20:19.366Z,99633.59
2022-10-28T13:22:55.500Z,99643.16
2022-10-28T13:25:33.674Z,99630.53
2022-10-28T13:28:01.190Z,99638.53
2022-10-28T13:30:28.941Z,99623.84
2022-10-28T13:33:06.250Z,99631.06
2022-10-28T13:35:33.408Z,99635.44
2022-10-28T13:38:01.557Z,99640.13
2022-10-28T13:40:30.705Z,99634.44
2022-10-28T13:42:58.823Z,99627.47
2022-10-28T13:45:51.542Z,99631.53
2022-10-28T13:48:30.089Z,99637.69
2022-10-28T13:51:11.749Z,99626.66
2022-10-28T13:53:47.213Z,99629.53
2022-10-28T13:56:49.690Z,99636.44
2022-10-28T13:59:26.917Z,99625.03
2022-10-28T14:02:32.304Z,99632.25
2022-10-28T14:04:58.353Z,99624.53
2022-10-28T14:07:31.671Z,99635.88
2022-10-28T14:10:16.225Z,99620.31
2022-10-28T14:13:22.441Z,99621.31
2022-10-28T14:15:50.365Z,99628.53
2022-10-28T14:18:41.386Z,99626.16
2022-10-28T14:21:03.350Z,99626.31
2022-10-28T14:23:29.707Z,99626.19
2022-10-28T14:26:00.804Z,99623.69
2022-10-28T14:28:27.134Z,99629.03
2022-10-28T14:31:08.793Z,99635.59
2022-10-28T14:33:37.040Z,99629.47
2022-10-28T14:36:18.667Z,99639.59
2022-10-28T14:39:03.178Z,99635.59
2022-10-28T14:42:07.209Z,99630.09
2022-10-28T14:45:01.624Z,99633.09
2022-10-28T14:47:50.815Z,99624.09
2022-10-28T14:50:44.972Z,99620.31
2022-10-28T14:53:18.545Z,99625.47
2022-10-28T14:55:50.023Z,99626.69
2022-10-28T14:58:24.609Z,99621.63
2022-10-28T15:01:17.345Z,99629.56
2022-10-28T15:03:49.929Z,99630.59
2022-10-28T15:06:30.177Z,99635.97
2022-10-28T15:09:02.806Z,99632.28
2022-10-28T15:11:29.224Z,99639.47
2022-10-28T15:14:13.060Z,99644.66
2022-10-28T15:16:46.861Z,99641.63
2022-10-28T15:19:17.356Z,99628.22
2022-10-28T15:21:43.814Z,99617.16
2022-10-28T15:24:13.909Z,99633.59
2022-10-28T15:26:40.443Z,99623.06
2022-10-28T15:29:06.956Z,99626.75
2022-10-28T15:31:33.614Z,99609.50
2022-10-28T15:34:00.016Z,99616.84
2022-10-28T15:36:26.979Z,99622.38
2022-10-28T15:39:16.665Z,99620.88
2022-10-28T15:41:48.003Z,99626.88
2022-10-28T15:44:36.590Z,99624.16
2022-10-28T15:47:27.805Z,99623.47
2022-10-28T15:50:19.888Z,99620.53
2022-10-28T15:52:51.947Z,99611.72
2022-10-28T15:55:18.283Z,99613.25
2022-10-28T15:57:59.701Z,99614.44
2022-10-28T16:00:34.041Z,99617.06
2022-10-28T16:03:05.759Z,99621.72
2022-10-28T16:05:32.206Z,99618.47
2022-10-28T16:08:00.998Z,99623.56
2022-10-28T16:10:43.368Z,99621.63
2022-10-28T16:13:19.026Z,99631.41
2022-10-28T16:15:58.426Z,99635.81
2022-10-28T16:18:26.776Z,99624.97
2022-10-28T16:20:54.767Z,99631.25
2022-10-28T16:23:24.434Z,99635.31
2022-10-28T16:25:50.867Z,99629.66
2022-10-28T16:28:23.505Z,99642.34
2022-10-28T16:30:59.125Z,99646.63
2022-10-28T16:33:31.926Z,99645.88
2022-10-28T16:35:58.620Z,99637.94
2022-10-28T16:38:25.160Z,99642.28
2022-10-28T16:40:52.682Z,99645.78
2022-10-28T16:43:22.602Z,99645.94
2022-10-28T16:45:50.465Z,99645.50
2022-10-28T16:48:18.436Z,99651.88
2022-10-28T16:50:49.844Z,99653.69
2022-10-28T16:53:16.452Z,99649.25
2022-10-28T16:55:43.006Z,99657.06
2022-10-28T16:58:09.682Z,99660.19
2022-10-28T17:00:37.089Z,99669.97
2022-10-28T17:03:03.977Z,99667.38
2022-10-28T17:05:30.818Z,99670.94
2022-10-28T17:07:57.473Z,99662.41
2022-10-28T17:10:24.724Z,99669.72
2022-10-28T17:12:51.301Z,99666.41
2022-10-28T17:15:18.236Z,99672.63
2022-10-28T17:17:48.187Z,99670.75
2022-10-28T17:20:14.674Z,99665.09
2022-10-28T17:22:41.052Z,99665.50
2022-10-28T17:25:08.604Z,99675.03
2022-10-28T17:27:37.250Z,99679.41
2022-10-28T17:30:04.935Z,99681.16
2022-10-28T17:32:31.540Z,99686.47
2022-10-28T17:34:57.939Z,99678.31
2022-10-28T17:37:24.294Z,99678.91
2022-10-28T17:39:50.657Z,99679.38
2022-10-28T17:42:17.142Z,99674.75
2022-10-28T17:44:43.501Z,99677.63
2022-10-28T17:47:09.846Z,99680.72
2022-10-28T17:49:36.248Z,99687.94
2022-10-28T17:52:02.636Z,99682.56
2022-10-28T17:54:29.081Z,99688.50
2022-10-28T17:56:55.379Z,99676.13
2022-10-28T17:59:21.802Z,99676.06
2022-10-28T18:01:48.574Z,99678.13
2022-10-28T18:04:15.477Z,99661.69
2022-10-28T18:06:41.834Z,99676.59
2022-10-28T18:09:12.348Z,99680.41
2022-10-28T18:11:38.899Z,99682.44
2022-10-28T18:14:05.735Z,99688.19
2022-10-28T18:16:32.394Z,99671.41
2022-10-28T18:19:05.933Z,99672.59
2022-10-28T18:21:32.861Z,99677.34
2022-10-28T18:23:59.351Z,99667.28
2022-10-28T18:26:25.783Z,99684.28
2022-10-28T18:28:52.100Z,99678.84
2022-10-28T18:31:20.363Z,99683.25
2022-10-28T18:33:47.147Z,99685.81
2022-10-28T18:36:23.185Z,99691.50
2022-10-28T18:38:50.778Z,99701.34
2022-10-28T18:41:25.928Z,99710.75
2022-10-28T18:43:53.974Z,99716.44
2022-10-28T18:46:20.412Z,99708.97
2022-10-28T18:48:46.786Z,99717.22
2022-10-28T18:51:13.728Z,99719.44
2022-10-28T18:53:42.337Z,99720.75
2022-10-28T18:56:15.915Z,99721.56
2022-10-28T18:58:42.860Z,99706.19
2022-10-28T19:01:12.018Z,99714.09
2022-10-28T19:03:39.215Z,99729.38
2022-10-28T19:06:09.042Z,99738.63
2022-10-28T19:08:35.463Z,99729.22
2022-10-28T19:11:03.020Z,99737.47
2022-10-28T19:13:33.173Z,99743.72
2022-10-28T19:15:59.905Z,99743.28
2022-10-28T19:18:26.341Z,99739.50
2022-10-28T19:20:52.751Z,99718.53
2022-10-28T19:23:19.092Z,99737.63
2022-10-28T19:25:56.517Z,99733.25
2022-10-28T19:28:22.958Z,99735.66
2022-10-28T19:30:49.506Z,99744.81
2022-10-28T19:33:16.014Z,99741.72
2022-10-28T19:35:42.468Z,99743.78
2022-10-28T19:38:09.014Z,99732.16
2022-10-28T19:40:35.566Z,99748.31
2022-10-28T19:43:02.083Z,99751.94
2022-10-28T19:45:28.463Z,99742.56
2022-10-28T19:47:55.319Z,99746.06
2022-10-28T19:50:22.115Z,99746.63
2022-10-28T19:52:48.451Z,99748.34
2022-10-28T19:55:15.264Z,99745.81
2022-10-28T19:57:41.736Z,99750.16
2022-10-28T20:00:09.468Z,99751.53
2022-10-28T20:02:35.838Z,99744.84
2022-10-28T20:05:02.355Z,99748.50
2022-10-28T20:07:28.892Z,99759.13
2022-10-28T20:09:55.326Z,99767.25
2022-10-28T20:12:21.992Z,99748.38
2022-10-28T20:14:48.656Z,99751.47
2022-10-28T20:17:15.152Z,99748.69
2022-10-28T20:19:41.494Z,99764.56
2022-10-28T20:22:07.984Z,99762.28
2022-10-28T20:24:34.352Z,99761.88
2022-10-28T20:27:00.772Z,99764.41
2022-10-28T20:29:27.105Z,99770.84
2022-10-28T20:31:53.490Z,99767.03
2022-10-28T20:34:19.773Z,99761.41
2022-10-28T20:36:46.188Z,99780.22
2022-10-28T20:39:15.104Z,99781.31
2022-10-28T20:41:43.481Z,99774.28
2022-10-28T20:44:10.208Z,99790.53
2022-10-28T20:46:36.795Z,99780.09
2022-10-28T20:49:03.997Z,99785.13
2022-10-28T20:51:32.535Z,99781.03
2022-10-28T20:53:59.951Z,99782.81
2022-10-28T20:56:31.273Z,99790.22
2022-10-28T20:58:58.525Z,99800.44
2022-10-28T21:01:27.780Z,99797.28
2022-10-28T21:04:05.212Z,99797.91
2022-10-28T21:06:32.369Z,99794.34
2022-10-28T21:08:58.988Z,99798.34
2022-10-28T21:11:27.164Z,99792.84
2022-10-28T21:13:56.351Z,99795.13
2022-10-28T21:16:24.181Z,99802.78
2022-10-28T21:18:50.788Z,99799.75
2022-10-28T21:21:19.305Z,99810.03
2022-10-28T21:23:45.647Z,99807.72
2022-10-28T21:26:12.891Z,99817.16
2022-10-28T21:28:39.990Z,99805.59
2022-10-28T21:31:11.929Z,99809.56
2022-10-28T21:33:44.062Z,99816.22
2022-10-28T21:36:18.092Z,99814.94
2022-10-28T21:38:44.858Z,99823.63
2022-10-28T21:41:19.014Z,99816.97
2022-10-28T21:43:47.948Z,99806.16
2022-10-28T21:46:15.096Z,99815.44
2022-10-28T21:48:41.456Z,99812.56
2022-10-28T21:51:14.706Z,99805.81
2022-10-28T21:53:42.094Z,99821.75
2022-10-28T21:56:15.582Z,99821.75
2022-10-28T21:58:44.095Z,99829.97
2022-10-28T22:01:13.545Z,99823.81
2022-10-28T22:03:40.879Z,99839.75
2022-10-28T22:06:08.683Z,99837.34
2022-10-28T22:08:35.278Z,99822.13
2022-10-28T22:11:04.494Z,99838.06
2022-10-28T22:13:30.856Z,99829.63
2022-10-28T22:16:10.275Z,99832.16
2022-10-28T22:18:37.836Z,99841.47
2022-10-28T22:21:06.106Z,99833.03
2022-10-28T22:23:32.885Z,99844.69
2022-10-28T22:26:07.041Z,99836.59
2022-10-28T22:28:34.213Z,99854.19
2022-10-28T22:31:02.566Z,99839.81
2022-10-28T22:33:28.915Z,99840.66
2022-10-28T22:35:59.798Z,99845.00
2022-10-28T22:38:27.021Z,99840.66
2022-10-28T22:41:06.918Z,99860.13
2022-10-28T22:43:33.930Z,99859.50
2022-10-28T22:46:01.216Z,99861.22
2022-10-28T22:48:28.073Z,99864.13
2022-10-28T22:50:54.631Z,99859.88
2022-10-28T22:53:21.230Z,99861.72
2022-10-28T22:55:48.030Z,99860.25
2022-10-28T22:58:16.401Z,99858.97
2022-10-28T23:00:43.540Z,99863.66
2022-10-28T23:03:09.953Z,99857.28
2022-10-28T23:05:36.354Z,99844.13
2022-10-28T23:08:02.749Z,99857.28
2022-10-28T23:10:29.251Z,99852.56
2022-10-28T23:13:01.352Z,99853.19
2022-10-28T23:15:29.101Z,99862.47
2022-10-28T23:17:56.276Z,99855.22
2022-10-28T23:20:25.046Z,99857.19
2022-10-28T23:22:55.441Z,99867.44
2022-10-28T23:25:22.410Z,99852.31
2022-10-28T23:27:48.904Z,99858.63
2022-10-28T23:30:15.355Z,99847.25
2022-10-28T23:32:42.119Z,99853.91
2022-10-28T23:35:08.969Z,99858.59
2022-10-28T23:37:35.722Z,99844.72
2022-10-28T23:40:02.416Z,99858.34
2022-10-28T23:42:29.119Z,99845.78
2022-10-28T23:44:55.889Z,99849.75
2022-10-28T23:47:22.595Z,99858.69
2022-10-28T23:49:49.277Z,99856.41
2022-10-28T23:52:15.951Z,99867.22
2022-10-28T23:54:42.939Z,99866.09
2022-10-28T23:57:12.692Z,99857.72
2022-10-28T23:59:39.405Z,99853.19
